Time;durP1;ratioP1;P1;durP2;ratioP2;P2;SDS_P1;SDS_P2;PMS_P1;PMS_P2;Temp;Humidity;BMP_temperature;BMP_pressure;BME280_temperature;BME280_humidity;BME280_pressure;Samples;Min_cycle;Max_cycle;Signal;HPM_P1;HPM_P2
2022/06/27 00:01:24;;;;;;;;;;;29.50;74.30;;;;;;5111123;28;19920;-75
2022/06/27 00:03:52;;;;;;;;;;;29.50;74.40;;;;;;5095145;28;20004;-75
2022/06/27 00:06:22;;;;;;;;;;;29.50;74.40;;;;;;5093332;28;19927;-75
2022/06/27 00:08:49;;;;;;;;;;;29.40;74.00;;;;;;5111697;28;19920;-75
2022/06/27 00:11:18;;;;;;;;;;;29.40;72.90;;;;;;5110475;28;19927;-75
2022/06/27 00:13:46;;;;;;;;;;;29.40;72.20;;;;;;5094480;28;20031;-75
2022/06/27 00:16:13;;;;;;;;;;;29.40;72.20;;;;;;5109991;28;20110;-75
2022/06/27 00:18:52;;;;;;;;;;;29.40;72.30;;;;;;5112405;28;20566;-75
2022/06/27 00:21:20;;;;;;;;;;;29.40;72.20;;;;;;5112032;28;19920;-75
2022/06/27 00:23:47;;;;;;;;;;;29.30;71.90;;;;;;5110801;28;20026;-75
2022/06/27 00:26:15;;;;;;;;;;;29.30;71.80;;;;;;5112005;28;19928;-75
2022/06/27 00:28:42;;;;;;;;;;;29.30;72.00;;;;;;5112132;28;19930;-75
2022/06/27 00:31:09;;;;;;;;;;;29.30;72.00;;;;;;5106971;28;19929;-74
2022/06/27 00:33:37;;;;;;;;;;;29.30;72.10;;;;;;5101651;28;19953;-76
2022/06/27 00:36:05;;;;;;;;;;;29.30;71.90;;;;;;5089901;28;20031;-75
2022/06/27 00:38:35;;;;;;;;;;;29.30;71.50;;;;;;5089664;28;19965;-75
2022/06/27 00:41:02;;;;;;;;;;;29.30;71.10;;;;;;5089450;28;19976;-75
2022/06/27 00:43:30;;;;;;;;;;;29.20;70.20;;;;;;5090377;28;20026;-74
2022/06/27 00:45:57;;;;;;;;;;;29.20;68.70;;;;;;5088862;28;20372;-75
2022/06/27 00:48:25;;;;;;;;;;;29.20;68.50;;;;;;5089254;28;20473;-75
2022/06/27 00:50:56;;;;;;;;;;;29.10;68.60;;;;;;5088428;28;19963;-75
2022/06/27 00:53:24;;;;;;;;;;;29.10;67.40;;;;;;5089662;28;19920;-75
2022/06/27 00:55:54;;;;;;;;;;;29.10;66.60;;;;;;5089621;28;20432;-75
2022/06/27 00:58:21;;;;;;;;;;;29.10;66.40;;;;;;5090608;28;19924;-75
2022/06/27 01:00:49;;;;;;;;;;;29.10;66.20;;;;;;5074405;28;19923;-75
2022/06/27 01:03:16;;;;;;;;;;;29.10;66.20;;;;;;5091883;28;19923;-75
2022/06/27 01:05:51;;;;;;;;;;;29.10;66.30;;;;;;5108853;28;19927;-75
2022/06/27 01:08:19;;;;;;;;;;;29.10;66.80;;;;;;5109782;28;20051;-75
2022/06/27 01:10:47;;;;;;;;;;;29.10;66.50;;;;;;5110066;28;19924;-75
2022/06/27 01:13:14;;;;;;;;;;;29.10;66.60;;;;;;5109772;28;19927;-74
2022/06/27 01:15:42;;;;;;;;;;;29.10;66.80;;;;;;5109565;28;20413;-75
2022/06/27 01:18:10;;;;;;;;;;;29.00;66.50;;;;;;5076243;28;19923;-75
2022/06/27 01:20:37;;;;;;;;;;;29.00;66.60;;;;;;5092842;28;19920;-75
2022/06/27 01:23:05;;;;;;;;;;;28.90;67.30;;;;;;5059455;28;20538;-75
2022/06/27 01:25:34;;;;;;;;;;;28.90;68.30;;;;;;5092435;28;19923;-75
2022/06/27 01:28:03;;;;;;;;;;;28.80;69.10;;;;;;5076390;28;19931;-75
2022/06/27 01:30:30;;;;;;;;;;;28.80;69.70;;;;;;5109823;28;19924;-75
2022/06/27 01:32:58;;;;;;;;;;;28.70;69.80;;;;;;5092649;28;20307;-75
2022/06/27 01:35:26;;;;;;;;;;;28.70;70.00;;;;;;5093011;28;19974;-75
2022/06/27 01:37:58;;;;;;;;;;;28.70;69.50;;;;;;5093703;28;19919;-75
2022/06/27 01:40:26;;;;;;;;;;;28.60;69.30;;;;;;5076277;28;19924;-75
2022/06/27 01:42:55;;;;;;;;;;;28.60;69.80;;;;;;5075964;28;19934;-75
2022/06/27 01:45:22;;;;;;;;;;;28.60;69.30;;;;;;5092751;28;20305;-74
2022/06/27 01:47:51;;;;;;;;;;;28.60;69.60;;;;;;5090196;28;19923;-75
2022/06/27 01:50:19;;;;;;;;;;;28.60;70.20;;;;;;5076229;28;19927;-75
2022/06/27 01:52:50;;;;;;;;;;;28.50;70.60;;;;;;5092698;28;19951;-75
2022/06/27 01:55:18;;;;;;;;;;;28.50;70.80;;;;;;5092403;28;20358;-75
2022/06/27 01:57:46;;;;;;;;;;;28.50;71.30;;;;;;5092777;28;20021;-75
2022/06/27 02:00:14;;;;;;;;;;;28.40;71.60;;;;;;5078070;28;19968;-75
2022/06/27 02:02:57;;;;;;;;;;;28.40;71.70;;;;;;5114848;28;20364;-75
2022/06/27 02:05:26;;;;;;;;;;;28.40;71.90;;;;;;5063405;28;19955;-75
2022/06/27 02:07:55;;;;;;;;;;;28.40;72.10;;;;;;5115026;28;19932;-75
2022/06/27 02:10:22;;;;;;;;;;;28.40;72.50;;;;;;5096795;28;20292;-75
2022/06/27 02:12:53;;;;;;;;;;;28.40;72.80;;;;;;5113142;28;19924;-75
2022/06/27 02:15:21;;;;;;;;;;;28.30;73.60;;;;;;5079311;28;19923;-75
2022/06/27 02:17:50;;;;;;;;;;;28.30;74.20;;;;;;5097115;28;19919;-75
2022/06/27 02:20:17;;;;;;;;;;;28.30;74.20;;;;;;5079025;28;19974;-75
2022/06/27 02:22:45;;;;;;;;;;;28.30;74.20;;;;;;5096424;28;20030;-75
2022/06/27 02:25:12;;;;;;;;;;;28.30;74.30;;;;;;5078995;28;19923;-75
2022/06/27 02:27:40;;;;;;;;;;;28.30;74.40;;;;;;5095614;28;19927;-75
2022/06/27 02:30:10;;;;;;;;;;;28.30;74.20;;;;;;5079572;28;19924;-75
2022/06/27 02:32:39;;;;;;;;;;;28.40;74.20;;;;;;5079178;28;19946;-75
2022/06/27 02:35:07;;;;;;;;;;;28.30;74.30;;;;;;5079358;28;19924;-75
2022/06/27 02:37:34;;;;;;;;;;;28.20;74.50;;;;;;5078618;28;19919;-75
2022/06/27 02:40:02;;;;;;;;;;;28.20;74.80;;;;;;5112505;28;19923;-75
2022/06/27 02:42:31;;;;;;;;;;;28.10;75.00;;;;;;5096543;28;19919;-74
2022/06/27 02:44:58;;;;;;;;;;;28.00;75.20;;;;;;5112545;28;19970;-75
2022/06/27 02:47:28;;;;;;;;;;;27.90;75.20;;;;;;5083845;28;20357;-75
2022/06/27 02:49:55;;;;;;;;;;;27.90;75.30;;;;;;5074821;28;19945;-75
2022/06/27 02:52:30;;;;;;;;;;;27.80;75.90;;;;;;5075243;28;19931;-75
2022/06/27 02:55:28;;;;;;;;;;;27.80;75.90;;;;;;5092350;28;19920;-75
2022/06/27 02:58:00;;;;;;;;;;;27.80;76.00;;;;;;5074578;28;19990;-75
2022/06/27 03:00:28;;;;;;;;;;;27.70;75.80;;;;;;5093772;28;20081;-75
2022/06/27 03:02:59;;;;;;;;;;;27.80;76.00;;;;;;5090920;28;20395;-75
2022/06/27 03:05:30;;;;;;;;;;;27.70;76.00;;;;;;5113837;28;19963;-75
2022/06/27 03:07:58;;;;;;;;;;;27.80;76.10;;;;;;5095662;28;20304;-75
2022/06/27 03:10:26;;;;;;;;;;;27.70;76.00;;;;;;5062166;28;19923;-75
2022/06/27 03:12:54;;;;;;;;;;;27.70;75.90;;;;;;5094750;28;19928;-75
2022/06/27 03:15:22;;;;;;;;;;;27.60;75.00;;;;;;5095303;28;19923;-75
2022/06/27 03:17:52;;;;;;;;;;;27.50;75.00;;;;;;5095292;28;19962;-75
2022/06/27 03:20:28;;;;;;;;;;;27.50;75.40;;;;;;5095417;28;19924;-75
2022/06/27 03:23:13;;;;;;;;;;;27.50;75.10;;;;;;5112262;28;19920;-75
2022/06/27 03:25:43;;;;;;;;;;;27.40;74.60;;;;;;5094970;28;19927;-75
2022/06/27 03:28:11;;;;;;;;;;;27.40;74.50;;;;;;5113204;28;19927;-75
2022/06/27 03:30:41;;;;;;;;;;;27.40;74.40;;;;;;5095340;28;20026;-76
2022/06/27 03:33:08;;;;;;;;;;;27.30;74.40;;;;;;5078252;28;19924;-75
2022/06/27 03:35:58;;;;;;;;;;;27.40;74.50;;;;;;5087533;28;19923;-75
2022/06/27 03:38:25;;;;;;;;;;;27.50;74.60;;;;;;5110920;28;19923;-75
2022/06/27 03:40:53;;;;;;;;;;;27.50;74.60;;;;;;5076237;28;20320;-75
2022/06/27 03:43:22;;;;;;;;;;;27.50;74.50;;;;;;5092740;28;19928;-75
2022/06/27 03:45:49;;;;;;;;;;;27.50;74.40;;;;;;5108780;28;19924;-75
2022/06/27 03:51:28;;;;;;;;;;;27.60;74.70;;;;;;5091348;28;19930;-75
2022/06/27 03:53:55;;;;;;;;;;;27.60;74.70;;;;;;5057002;28;20625;-75
2022/06/27 03:56:23;;;;;;;;;;;27.60;74.80;;;;;;5070815;28;19967;-75
2022/06/27 03:58:50;;;;;;;;;;;27.60;74.70;;;;;;5090883;28;19930;-75
2022/06/27 04:01:18;;;;;;;;;;;27.60;74.20;;;;;;5073965;28;20027;-75
2022/06/27 04:03:45;;;;;;;;;;;27.70;73.90;;;;;;5108167;28;20044;-75
2022/06/27 04:06:15;;;;;;;;;;;27.80;73.80;;;;;;5061382;28;19928;-75
2022/06/27 04:08:44;;;;;;;;;;;27.80;73.60;;;;;;5073994;28;19920;-75
2022/06/27 04:11:11;;;;;;;;;;;27.80;73.70;;;;;;5091165;28;19920;-75
2022/06/27 04:13:43;;;;;;;;;;;27.90;73.80;;;;;;5074018;28;19923;-75
2022/06/27 04:16:28;;;;;;;;;;;28.00;73.80;;;;;;5105074;28;19931;-75
2022/06/27 04:19:14;;;;;;;;;;;28.00;73.00;;;;;;5090868;28;19926;-75
2022/06/27 04:22:11;;;;;;;;;;;28.00;73.10;;;;;;5086767;28;20749;-75
2022/06/27 04:25:00;;;;;;;;;;;28.00;72.80;;;;;;5073278;28;19920;-75
2022/06/27 04:27:40;;;;;;;;;;;28.10;72.90;;;;;;5106682;28;19924;-75
2022/06/27 04:30:09;;;;;;;;;;;28.20;72.90;;;;;;5106607;28;19919;-75
2022/06/27 04:32:36;;;;;;;;;;;28.10;72.50;;;;;;5110300;28;19924;-75
2022/06/27 04:35:04;;;;;;;;;;;28.30;72.70;;;;;;5110770;28;20022;-75
2022/06/27 04:37:32;;;;;;;;;;;28.30;72.50;;;;;;5127328;27;19924;-76
2022/06/27 04:40:25;;;;;;;;;;;28.50;72.70;;;;;;5110753;28;19920;-76
2022/06/27 04:42:56;;;;;;;;;;;28.70;72.50;;;;;;5076231;28;20016;-75
2022/06/27 04:45:25;;;;;;;;;;;28.70;71.90;;;;;;5077096;28;19927;-75
2022/06/27 04:48:00;;;;;;;;;;;28.70;71.40;;;;;;5076678;28;20022;-75
2022/06/27 04:50:28;;;;;;;;;;;28.90;71.40;;;;;;5111927;28;19923;-75
2022/06/27 04:52:56;;;;;;;;;;;29.10;71.40;;;;;;5110578;28;19928;-76
2022/06/27 04:55:24;;;;;;;;;;;29.10;71.30;;;;;;5093698;28;19988;-75
2022/06/27 04:57:52;;;;;;;;;;;29.20;71.10;;;;;;5093554;28;20373;-75
2022/06/27 05:00:19;;;;;;;;;;;29.20;70.80;;;;;;5093676;28;19920;-75
2022/06/27 05:03:07;;;;;;;;;;;29.40;71.00;;;;;;5093113;28;20388;-75
2022/06/27 05:05:38;;;;;;;;;;;29.60;70.90;;;;;;5093471;28;19997;-75
2022/06/27 05:08:06;;;;;;;;;;;29.80;70.60;;;;;;5075992;28;19928;-75
2022/06/27 05:10:38;;;;;;;;;;;30.00;70.10;;;;;;5077315;28;20533;-75
2022/06/27 05:13:05;;;;;;;;;;;30.20;70.00;;;;;;5059890;28;19923;-75
2022/06/27 05:15:32;;;;;;;;;;;30.30;69.80;;;;;;5111206;28;19930;-76
2022/06/27 05:18:00;;;;;;;;;;;30.50;69.80;;;;;;5076762;28;20262;-75
2022/06/27 05:20:30;;;;;;;;;;;30.70;69.80;;;;;;5090442;28;19920;-75
2022/06/27 05:23:00;;;;;;;;;;;30.80;70.20;;;;;;5075820;28;19955;-75
2022/06/27 05:25:28;;;;;;;;;;;31.00;70.40;;;;;;5076613;28;19920;-75
2022/06/27 05:27:58;;;;;;;;;;;31.10;70.60;;;;;;5093176;28;20822;-74
2022/06/27 05:30:25;;;;;;;;;;;31.30;70.80;;;;;;5076606;28;20358;-74
2022/06/27 05:32:53;;;;;;;;;;;31.40;70.60;;;;;;5076567;28;19930;-74
2022/06/27 05:35:21;;;;;;;;;;;31.60;70.10;;;;;;5077769;28;19924;-75
2022/06/27 05:37:50;;;;;;;;;;;31.70;69.70;;;;;;5075976;28;19930;-76
2022/06/27 05:40:17;;;;;;;;;;;31.80;68.90;;;;;;5094580;28;19924;-75
2022/06/27 05:42:47;;;;;;;;;;;31.90;68.90;;;;;;5078767;27;19935;-76
2022/06/27 05:45:14;;;;;;;;;;;32.00;68.40;;;;;;5092720;28;20413;-75
2022/06/27 05:48:06;;;;;;;;;;;32.10;68.70;;;;;;5100359;28;19991;-76
2022/06/27 05:50:40;;;;;;;;;;;32.20;68.50;;;;;;5096929;28;20365;-75
2022/06/27 05:53:08;;;;;;;;;;;32.40;67.50;;;;;;5096973;28;19923;-76
2022/06/27 05:55:38;;;;;;;;;;;32.50;67.10;;;;;;5079802;28;20008;-76
2022/06/27 05:58:07;;;;;;;;;;;32.60;67.20;;;;;;5096632;28;19927;-75
2022/06/27 06:00:36;;;;;;;;;;;32.80;66.50;;;;;;5078820;28;19928;-76
2022/06/27 06:03:05;;;;;;;;;;;32.90;66.10;;;;;;5089884;28;19931;-76
2022/06/27 06:05:33;;;;;;;;;;;33.00;66.50;;;;;;5074289;28;19930;-76
2022/06/27 06:08:02;;;;;;;;;;;33.20;65.60;;;;;;5104350;27;20301;-76
2022/06/27 06:10:33;;;;;;;;;;;33.30;66.00;;;;;;5079842;28;20356;-76
2022/06/27 06:13:02;;;;;;;;;;;33.30;65.60;;;;;;5096839;28;20380;-76
2022/06/27 06:15:31;;;;;;;;;;;33.40;65.30;;;;;;5096308;28;20026;-76
2022/06/27 06:18:01;;;;;;;;;;;33.60;65.50;;;;;;5094959;28;19927;-76
2022/06/27 06:20:28;;;;;;;;;;;33.70;65.40;;;;;;5113065;28;19946;-76
2022/06/27 06:22:56;;;;;;;;;;;33.80;65.30;;;;;;5076122;28;20010;-76
2022/06/27 06:25:24;;;;;;;;;;;33.90;64.90;;;;;;5086485;28;20286;-76
2022/06/27 06:27:51;;;;;;;;;;;34.00;64.90;;;;;;5113699;28;19930;-76
2022/06/27 06:30:19;;;;;;;;;;;34.00;64.60;;;;;;5096011;28;19924;-76
2022/06/27 06:32:47;;;;;;;;;;;34.00;64.50;;;;;;5095746;28;19924;-76
2022/06/27 06:35:15;;;;;;;;;;;34.10;64.60;;;;;;5079044;28;20251;-76
2022/06/27 06:37:43;;;;;;;;;;;34.10;63.70;;;;;;5078400;28;20399;-76
2022/06/27 06:40:14;;;;;;;;;;;34.20;63.60;;;;;;5096296;28;19920;-74
2022/06/27 06:42:41;;;;;;;;;;;34.20;63.60;;;;;;5095858;28;19926;-74
2022/06/27 06:45:29;;;;;;;;;;;34.20;63.50;;;;;;5088184;28;19923;-74
2022/06/27 06:48:32;;;;;;;;;;;34.10;63.50;;;;;;5051252;28;19921;-74
2022/06/27 06:51:00;;;;;;;;;;;34.30;64.10;;;;;;5101393;28;20384;-74
2022/06/27 06:53:27;;;;;;;;;;;34.30;64.30;;;;;;5096244;28;20347;-74
2022/06/27 06:55:57;;;;;;;;;;;34.30;64.00;;;;;;5078920;28;20361;-74
2022/06/27 06:58:25;;;;;;;;;;;34.20;63.70;;;;;;5096389;28;19920;-74
2022/06/27 07:00:52;;;;;;;;;;;34.20;63.60;;;;;;5094861;28;19931;-75
2022/06/27 07:03:20;;;;;;;;;;;34.30;63.70;;;;;;5095583;28;19976;-74
2022/06/27 07:05:48;;;;;;;;;;;34.30;63.60;;;;;;5095593;28;19977;-74
2022/06/27 07:08:15;;;;;;;;;;;34.40;63.60;;;;;;5095667;28;19924;-76
2022/06/27 07:10:42;;;;;;;;;;;34.50;63.50;;;;;;5095435;28;20339;-74
2022/06/27 07:13:10;;;;;;;;;;;34.60;63.50;;;;;;5112281;28;20288;-74
2022/06/27 07:15:38;;;;;;;;;;;34.60;63.10;;;;;;5113613;28;19975;-74
2022/06/27 07:18:09;;;;;;;;;;;34.70;63.00;;;;;;5095639;28;19943;-74
2022/06/27 07:20:37;;;;;;;;;;;34.80;63.10;;;;;;5095455;28;19973;-74
2022/06/27 07:23:06;;;;;;;;;;;34.90;63.20;;;;;;5113366;28;20365;-74
2022/06/27 07:25:35;;;;;;;;;;;35.00;63.00;;;;;;5113289;28;20377;-74
2022/06/27 07:28:02;;;;;;;;;;;35.00;62.80;;;;;;5095440;28;19947;-74
2022/06/27 07:30:30;;;;;;;;;;;35.10;62.80;;;;;;5113090;28;19930;-74
2022/06/27 07:32:58;;;;;;;;;;;35.10;62.50;;;;;;5112824;28;19935;-75
2022/06/27 07:35:26;;;;;;;;;;;35.20;62.50;;;;;;5095385;28;19919;-74
2022/06/27 07:37:54;;;;;;;;;;;35.30;62.40;;;;;;5094731;28;19924;-74
2022/06/27 07:40:23;;;;;;;;;;;35.30;61.80;;;;;;5095501;28;19927;-74
2022/06/27 07:42:51;;;;;;;;;;;35.40;61.90;;;;;;5113303;28;19924;-74
2022/06/27 07:45:24;;;;;;;;;;;35.50;62.00;;;;;;5094828;28;20026;-74
2022/06/27 07:47:53;;;;;;;;;;;35.60;61.70;;;;;;5092390;28;19924;-75
2022/06/27 07:50:40;;;;;;;;;;;35.60;61.60;;;;;;5094901;28;19931;-75
2022/06/27 07:53:11;;;;;;;;;;;35.50;62.10;;;;;;5113061;28;19930;-75
2022/06/27 07:55:40;;;;;;;;;;;35.60;62.70;;;;;;5092751;28;19931;-74
2022/06/27 07:58:09;;;;;;;;;;;35.60;63.10;;;;;;5094312;28;19920;-75
2022/06/27 08:00:37;;;;;;;;;;;35.50;63.10;;;;;;5094697;28;20005;-74
2022/06/27 08:03:36;;;;;;;;;;;35.40;62.70;;;;;;5093323;28;19924;-74
2022/06/27 08:05:53;;;;;;;;;;;35.60;63.10;;;;;;5094785;28;19924;-75
2022/06/27 08:08:23;;;;;;;;;;;35.60;64.60;;;;;;5076757;28;19923;-75
2022/06/27 08:10:50;;;;;;;;;;;35.40;65.80;;;;;;5059034;28;20433;-75
2022/06/27 08:13:18;;;;;;;;;;;35.40;66.30;;;;;;5093538;28;20657;-74
2022/06/27 08:15:47;;;;;;;;;;;35.30;66.80;;;;;;5059486;28;19924;-74
2022/06/27 08:18:15;;;;;;;;;;;35.10;67.60;;;;;;5112425;28;20266;-74
2022/06/27 08:20:45;;;;;;;;;;;35.00;68.20;;;;;;5112461;28;20284;-74
2022/06/27 08:23:15;;;;;;;;;;;35.10;68.50;;;;;;5111746;28;20373;-74
2022/06/27 08:25:43;;;;;;;;;;;34.90;67.90;;;;;;5094186;28;19984;-74
2022/06/27 08:28:12;;;;;;;;;;;35.00;68.40;;;;;;5094142;28;19955;-74
2022/06/27 08:30:41;;;;;;;;;;;35.10;68.70;;;;;;5093563;28;20274;-74
2022/06/27 08:33:10;;;;;;;;;;;35.00;68.00;;;;;;5091299;28;19923;-74
2022/06/27 08:35:44;;;;;;;;;;;35.00;68.40;;;;;;5076504;28;19923;-74
2022/06/27 08:38:11;;;;;;;;;;;34.90;68.10;;;;;;5093436;28;19949;-75
2022/06/27 08:40:39;;;;;;;;;;;35.10;67.20;;;;;;5093576;28;19923;-75
2022/06/27 08:43:07;;;;;;;;;;;35.30;67.40;;;;;;5076549;28;20281;-75
2022/06/27 08:45:35;;;;;;;;;;;35.50;67.80;;;;;;5077449;28;19924;-76
2022/06/27 08:48:07;;;;;;;;;;;35.50;67.90;;;;;;5093945;28;20273;-75
2022/06/27 08:50:35;;;;;;;;;;;35.70;67.80;;;;;;5111529;28;19923;-75
2022/06/27 08:53:03;;;;;;;;;;;35.70;67.80;;;;;;5093032;28;20349;-75
2022/06/27 08:55:33;;;;;;;;;;;35.80;67.50;;;;;;5111209;28;19931;-75
2022/06/27 08:58:11;;;;;;;;;;;35.80;67.40;;;;;;5093747;28;19927;-76
2022/06/27 09:00:40;;;;;;;;;;;35.90;66.60;;;;;;5111395;28;19924;-75
2022/06/27 09:03:08;;;;;;;;;;;35.90;66.90;;;;;;5075847;28;19927;-76
2022/06/27 09:05:36;;;;;;;;;;;35.90;65.70;;;;;;5093805;28;20278;-75
2022/06/27 09:08:05;;;;;;;;;;;36.00;65.60;;;;;;5110273;28;19930;-75
2022/06/27 09:10:41;;;;;;;;;;;36.10;65.50;;;;;;5110917;28;20636;-75
2022/06/27 09:13:11;;;;;;;;;;;36.10;65.20;;;;;;5059830;28;20472;-75
2022/06/27 09:15:48;;;;;;;;;;;36.10;64.70;;;;;;5093199;28;19924;-75
2022/06/27 09:18:17;;;;;;;;;;;36.20;64.50;;;;;;5093361;28;19924;-76
2022/06/27 09:20:49;;;;;;;;;;;36.20;64.40;;;;;;5092991;28;19992;-75
2022/06/27 09:23:26;;;;;;;;;;;36.30;64.70;;;;;;5111151;28;19931;-75
2022/06/27 09:26:02;;;;;;;;;;;36.50;64.80;;;;;;5093260;28;19973;-75
2022/06/27 09:28:37;;;;;;;;;;;36.50;64.90;;;;;;5076490;28;19923;-75
2022/06/27 09:31:06;;;;;;;;;;;36.50;64.40;;;;;;5071230;28;19920;-75
2022/06/27 09:33:37;;;;;;;;;;;36.40;64.90;;;;;;5055896;28;19920;-75
2022/06/27 09:36:09;;;;;;;;;;;36.50;65.10;;;;;;5090643;28;20006;-75
2022/06/27 09:38:39;;;;;;;;;;;36.50;64.00;;;;;;5090726;28;19920;-75
2022/06/27 09:41:09;;;;;;;;;;;36.50;64.20;;;;;;5088751;28;19924;-75
2022/06/27 09:43:40;;;;;;;;;;;36.40;63.10;;;;;;5090021;28;19951;-76
2022/06/27 09:46:08;;;;;;;;;;;36.50;63.60;;;;;;5056118;28;19923;-76
2022/06/27 09:48:37;;;;;;;;;;;36.50;63.50;;;;;;5073107;28;19924;-75
2022/06/27 09:51:05;;;;;;;;;;;36.60;63.20;;;;;;5072429;28;19928;-75
2022/06/27 09:53:34;;;;;;;;;;;36.80;63.30;;;;;;5072866;28;19924;-75
2022/06/27 09:56:01;;;;;;;;;;;36.80;62.70;;;;;;5071858;28;19920;-75
2022/06/27 09:58:30;;;;;;;;;;;36.80;62.40;;;;;;5089730;28;20689;-76
2022/06/27 10:01:09;;;;;;;;;;;36.70;63.60;;;;;;5090223;28;19928;-76
2022/06/27 10:03:38;;;;;;;;;;;36.80;64.30;;;;;;5036486;28;19927;-76
2022/06/27 10:06:06;;;;;;;;;;;36.80;63.80;;;;;;5072774;28;20016;-76
2022/06/27 10:08:35;;;;;;;;;;;36.70;64.40;;;;;;5090758;28;19950;-76
2022/06/27 10:11:08;;;;;;;;;;;36.80;64.50;;;;;;5055650;28;19920;-76
2022/06/27 10:13:36;;;;;;;;;;;36.60;64.00;;;;;;5090347;28;19924;-76
2022/06/27 10:16:08;;;;;;;;;;;36.30;64.30;;;;;;5066019;28;20388;-76
2022/06/27 10:18:52;;;;;;;;;;;36.30;64.20;;;;;;5072501;28;19926;-76
2022/06/27 10:21:26;;;;;;;;;;;36.30;64.10;;;;;;5074329;28;20403;-75
2022/06/27 10:24:12;;;;;;;;;;;36.40;64.30;;;;;;5094018;28;20336;-75
2022/06/27 10:26:41;;;;;;;;;;;36.50;63.70;;;;;;5094255;28;19924;-75
2022/06/27 10:29:32;;;;;;;;;;;36.60;63.00;;;;;;5075802;28;20019;-75
2022/06/27 10:32:01;;;;;;;;;;;36.40;62.40;;;;;;5076020;28;19946;-76
2022/06/27 10:34:37;;;;;;;;;;;36.40;62.30;;;;;;5076108;28;20023;-75
2022/06/27 10:37:26;;;;;;;;;;;36.40;63.00;;;;;;5075839;28;19931;-76
2022/06/27 10:39:54;;;;;;;;;;;36.60;62.60;;;;;;5094169;28;20027;-76
2022/06/27 10:42:48;;;;;;;;;;;36.70;61.70;;;;;;5075600;28;19927;-76
2022/06/27 10:45:19;;;;;;;;;;;36.70;61.40;;;;;;5076099;28;19924;-75
2022/06/27 10:47:46;;;;;;;;;;;36.80;60.50;;;;;;5093877;28;20400;-75
2022/06/27 10:50:14;;;;;;;;;;;36.80;60.30;;;;;;5075768;28;19924;-75
2022/06/27 10:52:43;;;;;;;;;;;36.60;60.20;;;;;;5076013;28;19973;-75
2022/06/27 10:55:24;;;;;;;;;;;36.60;60.60;;;;;;5058786;28;19928;-75
2022/06/27 10:57:52;;;;;;;;;;;36.60;60.70;;;;;;5075892;28;19928;-76
2022/06/27 11:00:35;;;;;;;;;;;36.60;60.40;;;;;;5075647;28;19962;-75
2022/06/27 11:03:05;;;;;;;;;;;36.40;59.80;;;;;;5058680;28;19950;-75
2022/06/27 11:05:52;;;;;;;;;;;36.40;60.00;;;;;;5059122;28;19924;-75
2022/06/27 11:08:20;;;;;;;;;;;36.50;60.00;;;;;;5058892;28;19931;-75
2022/06/27 11:10:49;;;;;;;;;;;36.60;60.50;;;;;;5093779;28;20027;-75
2022/06/27 11:13:35;;;;;;;;;;;36.60;60.40;;;;;;5075249;28;19924;-75
2022/06/27 11:16:03;;;;;;;;;;;36.70;60.10;;;;;;5074899;28;19959;-75
2022/06/27 11:18:44;;;;;;;;;;;36.50;60.00;;;;;;5057732;28;19921;-76
2022/06/27 11:21:13;;;;;;;;;;;36.40;60.30;;;;;;5093254;28;19920;-76
2022/06/27 11:23:50;;;;;;;;;;;36.30;60.40;;;;;;5075275;28;20297;-77
2022/06/27 11:26:18;;;;;;;;;;;36.10;60.40;;;;;;5092103;28;19924;-76
2022/06/27 11:34:24;;;;;;;;;;;36.10;61.10;;;;;;5092670;28;19971;-76
2022/06/27 11:36:52;;;;;;;;;;;36.10;61.80;;;;;;5074625;28;19959;-76
2022/06/27 11:39:32;;;;;;;;;;;36.20;61.50;;;;;;5049737;28;19930;-76
2022/06/27 11:42:02;;;;;;;;;;;36.30;61.40;;;;;;5058314;28;19926;-76
2022/06/27 11:44:29;;;;;;;;;;;36.40;61.60;;;;;;5091934;28;19924;-76
2022/06/27 11:47:04;;;;;;;;;;;36.40;61.20;;;;;;5089499;28;20255;-77
2022/06/27 11:49:33;;;;;;;;;;;36.40;60.80;;;;;;5091052;28;19946;-76
2022/06/27 11:52:04;;;;;;;;;;;36.40;60.60;;;;;;5091384;28;20016;-76
2022/06/27 11:54:36;;;;;;;;;;;36.30;60.70;;;;;;5074780;28;19920;-76
2022/06/27 11:57:04;;;;;;;;;;;36.30;60.20;;;;;;5074609;28;20278;-75
2022/06/27 11:59:47;;;;;;;;;;;36.20;60.00;;;;;;5073688;28;19924;-77
2022/06/27 12:02:33;;;;;;;;;;;36.20;60.10;;;;;;5057969;28;19924;-76
2022/06/27 12:05:07;;;;;;;;;;;36.20;60.60;;;;;;5076955;28;20270;-76
2022/06/27 12:07:53;;;;;;;;;;;36.10;59.90;;;;;;5091368;28;20016;-76
2022/06/27 12:10:35;;;;;;;;;;;36.00;59.00;;;;;;5103091;28;19931;-75
2022/06/27 12:13:04;;;;;;;;;;;36.00;58.70;;;;;;5090438;28;19924;-76
2022/06/27 12:15:31;;;;;;;;;;;36.00;58.80;;;;;;5084045;28;19923;-76
2022/06/27 12:18:00;;;;;;;;;;;36.00;58.60;;;;;;5073906;28;20466;-76
2022/06/27 12:20:28;;;;;;;;;;;36.00;59.30;;;;;;5100305;28;19931;-76
2022/06/27 12:22:56;;;;;;;;;;;36.00;58.70;;;;;;5079917;28;19924;-76
2022/06/27 12:25:24;;;;;;;;;;;36.10;59.20;;;;;;5101433;28;19926;-77
2022/06/27 12:27:52;;;;;;;;;;;36.20;58.70;;;;;;5109787;28;19919;-76
2022/06/27 12:30:20;;;;;;;;;;;36.10;57.60;;;;;;5071497;28;19927;-76
2022/06/27 12:32:47;;;;;;;;;;;36.10;57.20;;;;;;5110727;28;19924;-76
2022/06/27 12:35:15;;;;;;;;;;;36.10;57.20;;;;;;5108605;28;19924;-76
2022/06/27 12:37:42;;;;;;;;;;;36.10;56.90;;;;;;5096184;28;19923;-76
2022/06/27 12:40:10;;;;;;;;;;;36.10;56.90;;;;;;5093270;28;19919;-76
2022/06/27 12:42:38;;;;;;;;;;;36.10;57.10;;;;;;5110341;28;19930;-76
2022/06/27 12:45:06;;;;;;;;;;;36.10;56.80;;;;;;5107223;28;19951;-76
2022/06/27 12:47:33;;;;;;;;;;;36.00;56.90;;;;;;5109515;28;19924;-76
2022/06/27 12:50:01;;;;;;;;;;;36.00;56.90;;;;;;5089613;28;20008;-76
2022/06/27 12:52:29;;;;;;;;;;;35.90;56.80;;;;;;5087498;28;19930;-77
2022/06/27 12:54:56;;;;;;;;;;;35.90;56.70;;;;;;5107050;28;19930;-76
2022/06/27 12:57:25;;;;;;;;;;;35.90;56.90;;;;;;5092761;28;19931;-77
2022/06/27 12:59:54;;;;;;;;;;;35.80;56.20;;;;;;5109083;28;20377;-76
2022/06/27 13:02:22;;;;;;;;;;;35.80;56.10;;;;;;5088724;28;19972;-77
2022/06/27 13:04:51;;;;;;;;;;;35.90;56.30;;;;;;5110977;28;19926;-77
2022/06/27 13:07:20;;;;;;;;;;;35.90;56.00;;;;;;5110827;28;19930;-77
2022/06/27 13:09:48;;;;;;;;;;;35.80;55.40;;;;;;5093511;28;20030;-77
2022/06/27 13:12:16;;;;;;;;;;;35.90;56.10;;;;;;5092922;28;20385;-76
2022/06/27 13:14:45;;;;;;;;;;;35.90;55.80;;;;;;5092814;28;20377;-77
2022/06/27 13:17:14;;;;;;;;;;;35.80;55.50;;;;;;5076298;28;19924;-76
2022/06/27 13:19:42;;;;;;;;;;;35.70;55.70;;;;;;5093503;28;19920;-76
2022/06/27 13:22:09;;;;;;;;;;;35.80;56.20;;;;;;5110199;28;19924;-76
2022/06/27 13:24:37;;;;;;;;;;;35.70;56.70;;;;;;5111142;28;20369;-76
2022/06/27 13:27:05;;;;;;;;;;;35.60;56.30;;;;;;5092738;28;19931;-76
2022/06/27 13:29:33;;;;;;;;;;;35.60;56.00;;;;;;5076747;28;20388;-76
2022/06/27 13:32:02;;;;;;;;;;;35.70;55.10;;;;;;5109142;28;19959;-76
2022/06/27 13:34:30;;;;;;;;;;;35.70;54.80;;;;;;5109852;28;20365;-76
2022/06/27 13:37:14;;;;;;;;;;;35.60;54.80;;;;;;5093083;28;20370;-76
2022/06/27 13:39:42;;;;;;;;;;;35.50;55.10;;;;;;5093126;28;19924;-76
2022/06/27 13:42:09;;;;;;;;;;;35.50;55.90;;;;;;5110045;28;19978;-76
2022/06/27 13:44:37;;;;;;;;;;;35.50;55.50;;;;;;5109394;28;19938;-76
2022/06/27 13:47:05;;;;;;;;;;;35.40;55.70;;;;;;5093456;28;19931;-77
2022/06/27 13:49:33;;;;;;;;;;;35.40;55.90;;;;;;5093136;28;19985;-76
2022/06/27 13:52:01;;;;;;;;;;;35.50;55.70;;;;;;5090575;28;19947;-76
2022/06/27 13:54:29;;;;;;;;;;;35.50;55.00;;;;;;5089515;28;19924;-77
2022/06/27 13:56:58;;;;;;;;;;;35.50;55.10;;;;;;5093968;28;19920;-76
2022/06/27 13:59:26;;;;;;;;;;;35.60;55.00;;;;;;5076820;28;20015;-76
2022/06/27 14:01:54;;;;;;;;;;;35.60;54.10;;;;;;5093234;28;20378;-76
2022/06/27 14:04:21;;;;;;;;;;;35.60;54.40;;;;;;5076151;28;19924;-76
2022/06/27 14:09:36;;;;;;;;;;;35.40;53.40;;;;;;5076634;28;19927;-78
2022/06/27 14:12:04;;;;;;;;;;;35.50;54.40;;;;;;5076298;28;19973;-77
2022/06/27 14:14:33;;;;;;;;;;;35.60;54.60;;;;;;5076959;28;19924;-77
2022/06/27 14:17:00;;;;;;;;;;;35.60;54.10;;;;;;5094336;28;20036;-76
2022/06/27 14:19:28;;;;;;;;;;;35.60;54.20;;;;;;5093137;28;19923;-76
2022/06/27 14:21:56;;;;;;;;;;;35.60;54.50;;;;;;5094220;28;19920;-76
2022/06/27 14:24:24;;;;;;;;;;;35.60;54.50;;;;;;5086214;28;20284;-76
2022/06/27 14:26:51;;;;;;;;;;;35.50;54.40;;;;;;5076633;28;19923;-77
2022/06/27 14:29:18;;;;;;;;;;;35.60;55.10;;;;;;5093859;28;20018;-76
2022/06/27 14:31:46;;;;;;;;;;;35.50;54.80;;;;;;5075794;28;20277;-77
2022/06/27 14:34:14;;;;;;;;;;;35.50;54.30;;;;;;5092571;28;19924;-76
2022/06/27 14:36:41;;;;;;;;;;;35.40;54.50;;;;;;5092581;28;19920;-75
2022/06/27 14:39:09;;;;;;;;;;;35.40;55.10;;;;;;5093621;28;19963;-76
2022/06/27 14:41:41;;;;;;;;;;;35.30;54.50;;;;;;5093582;28;19959;-75
2022/06/27 14:44:09;;;;;;;;;;;35.20;54.00;;;;;;5092817;28;19931;-77
2022/06/27 14:46:37;;;;;;;;;;;35.20;54.40;;;;;;5092819;28;19920;-76